sensor_id;sensor_type;location;lat;lon;timestamp;P1;durP1;ratioP1;P2;durP2;ratioP2
53915;SDS011;39827;49.652;18.770;2023-05-16T00:00:19;456.55;;;422.58;;
53915;SDS011;39827;49.652;18.770;2023-05-16T00:02:44;436.13;;;402.38;;
53915;SDS011;39827;49.652;18.770;2023-05-16T00:05:10;545.88;;;501.77;;
53915;SDS011;39827;49.652;18.770;2023-05-16T00:07:38;665.90;;;614.63;;
53915;SDS011;39827;49.652;18.770;2023-05-16T00:10:06;671.13;;;619.97;;
53915;SDS011;39827;49.652;18.770;2023-05-16T00:12:32;652.40;;;603.65;;
53915;SDS011;39827;49.652;18.770;2023-05-16T00:14:58;614.50;;;568.15;;
53915;SDS011;39827;49.652;18.770;2023-05-16T00:17:23;641.10;;;593.10;;
53915;SDS011;39827;49.652;18.770;2023-05-16T00:19:52;606.70;;;560.20;;
53915;SDS011;39827;49.652;18.770;2023-05-16T00:22:22;444.25;;;411.73;;
53915;SDS011;39827;49.652;18.770;2023-05-16T00:24:48;453.80;;;419.33;;
53915;SDS011;39827;49.652;18.770;2023-05-16T00:27:13;417.50;;;386.05;;
53915;SDS011;39827;49.652;18.770;2023-05-16T00:29:39;483.65;;;444.48;;
53915;SDS011;39827;49.652;18.770;2023-05-16T00:32:04;672.70;;;621.42;;
53915;SDS011;39827;49.652;18.770;2023-05-16T00:34:32;636.20;;;588.22;;
53915;SDS011;39827;49.652;18.770;2023-05-16T00:36:58;610.85;;;564.50;;
53915;SDS011;39827;49.652;18.770;2023-05-16T00:39:23;624.58;;;577.72;;
53915;SDS011;39827;49.652;18.770;2023-05-16T00:41:49;607.20;;;560.97;;
53915;SDS011;39827;49.652;18.770;2023-05-16T00:44:15;593.92;;;547.97;;
53915;SDS011;39827;49.652;18.770;2023-05-16T00:46:40;687.13;;;635.13;;
53915;SDS011;39827;49.652;18.770;2023-05-16T00:49:06;758.38;;;700.50;;
53915;SDS011;39827;49.652;18.770;2023-05-16T00:51:32;763.20;;;704.45;;
53915;SDS011;39827;49.652;18.770;2023-05-16T00:53:58;653.47;;;603.30;;
53915;SDS011;39827;49.652;18.770;2023-05-16T00:56:24;509.58;;;470.88;;
53915;SDS011;39827;49.652;18.770;2023-05-16T00:58:50;537.33;;;495.67;;
53915;SDS011;39827;49.652;18.770;2023-05-16T01:01:15;425.20;;;393.38;;
53915;SDS011;39827;49.652;18.770;2023-05-16T01:03:44;390.27;;;361.55;;
53915;SDS011;39827;49.652;18.770;2023-05-16T01:06:10;398.52;;;368.63;;
53915;SDS011;39827;49.652;18.770;2023-05-16T01:08:36;411.08;;;380.63;;
53915;SDS011;39827;49.652;18.770;2023-05-16T01:11:07;377.52;;;349.17;;
53915;SDS011;39827;49.652;18.770;2023-05-16T01:22:11;435.00;;;400.73;;
53915;SDS011;39827;49.652;18.770;2023-05-16T01:25:25;353.95;;;327.42;;
53915;SDS011;39827;49.652;18.770;2023-05-16T01:27:35;383.67;;;354.88;;
53915;SDS011;39827;49.652;18.770;2023-05-16T01:30:12;401.90;;;371.30;;
53915;SDS011;39827;49.652;18.770;2023-05-16T01:32:40;482.02;;;443.73;;
53915;SDS011;39827;49.652;18.770;2023-05-16T01:35:05;511.38;;;470.15;;
53915;SDS011;39827;49.652;18.770;2023-05-16T01:37:38;452.90;;;417.65;;
53915;SDS011;39827;49.652;18.770;2023-05-16T01:40:13;482.83;;;444.80;;
53915;SDS011;39827;49.652;18.770;2023-05-16T01:42:43;543.30;;;499.85;;
53915;SDS011;39827;49.652;18.770;2023-05-16T01:45:17;468.00;;;431.85;;
53915;SDS011;39827;49.652;18.770;2023-05-16T01:47:51;442.10;;;407.55;;
53915;SDS011;39827;49.652;18.770;2023-05-16T01:50:31;427.77;;;394.65;;
53915;SDS011;39827;49.652;18.770;2023-05-16T01:53:05;439.60;;;405.10;;
53915;SDS011;39827;49.652;18.770;2023-05-16T01:58:08;414.42;;;381.58;;
53915;SDS011;39827;49.652;18.770;2023-05-16T02:00:35;377.92;;;349.27;;
53915;SDS011;39827;49.652;18.770;2023-05-16T02:03:00;382.67;;;353.27;;
53915;SDS011;39827;49.652;18.770;2023-05-16T02:05:26;358.52;;;331.15;;
53915;SDS011;39827;49.652;18.770;2023-05-16T02:07:51;386.52;;;357.02;;
53915;SDS011;39827;49.652;18.770;2023-05-16T02:10:17;400.38;;;369.63;;
53915;SDS011;39827;49.652;18.770;2023-05-16T02:12:44;422.67;;;388.35;;
53915;SDS011;39827;49.652;18.770;2023-05-16T02:15:10;478.30;;;437.70;;
53915;SDS011;39827;49.652;18.770;2023-05-16T02:17:35;507.08;;;464.10;;
53915;SDS011;39827;49.652;18.770;2023-05-16T02:20:01;479.80;;;438.02;;
53915;SDS011;39827;49.652;18.770;2023-05-16T02:22:31;651.60;;;598.67;;
53915;SDS011;39827;49.652;18.770;2023-05-16T02:24:57;719.78;;;661.55;;
53915;SDS011;39827;49.652;18.770;2023-05-16T02:27:24;716.55;;;657.65;;
53915;SDS011;39827;49.652;18.770;2023-05-16T02:29:50;651.95;;;596.95;;
53915;SDS011;39827;49.652;18.770;2023-05-16T02:32:15;680.80;;;625.63;;
53915;SDS011;39827;49.652;18.770;2023-05-16T02:34:41;720.95;;;663.28;;
53915;SDS011;39827;49.652;18.770;2023-05-16T02:37:07;600.03;;;549.42;;
53915;SDS011;39827;49.652;18.770;2023-05-16T02:39:32;663.70;;;608.75;;
53915;SDS011;39827;49.652;18.770;2023-05-16T02:41:57;747.92;;;688.55;;
53915;SDS011;39827;49.652;18.770;2023-05-16T02:44:23;520.90;;;477.10;;
53915;SDS011;39827;49.652;18.770;2023-05-16T02:46:48;521.55;;;475.20;;
53915;SDS011;39827;49.652;18.770;2023-05-16T02:49:13;644.40;;;590.33;;
53915;SDS011;39827;49.652;18.770;2023-05-16T02:51:39;714.58;;;655.55;;
53915;SDS011;39827;49.652;18.770;2023-05-16T02:54:04;524.88;;;480.52;;
53915;SDS011;39827;49.652;18.770;2023-05-16T02:56:33;705.95;;;648.25;;
53915;SDS011;39827;49.652;18.770;2023-05-16T02:58:58;713.58;;;654.88;;
53915;SDS011;39827;49.652;18.770;2023-05-16T03:01:24;651.20;;;596.20;;
53915;SDS011;39827;49.652;18.770;2023-05-16T03:03:49;513.75;;;468.60;;
53915;SDS011;39827;49.652;18.770;2023-05-16T03:06:15;528.80;;;482.30;;
53915;SDS011;39827;49.652;18.770;2023-05-16T03:08:40;734.50;;;675.83;;
53915;SDS011;39827;49.652;18.770;2023-05-16T03:11:06;705.78;;;649.15;;
53915;SDS011;39827;49.652;18.770;2023-05-16T03:13:31;621.30;;;569.40;;
53915;SDS011;39827;49.652;18.770;2023-05-16T03:15:57;704.70;;;649.15;;
53915;SDS011;39827;49.652;18.770;2023-05-16T03:18:22;674.58;;;620.03;;
53915;SDS011;39827;49.652;18.770;2023-05-16T03:20:48;538.50;;;491.75;;
53915;SDS011;39827;49.652;18.770;2023-05-16T03:23:13;666.50;;;611.88;;
53915;SDS011;39827;49.652;18.770;2023-05-16T03:25:38;701.35;;;645.55;;
53915;SDS011;39827;49.652;18.770;2023-05-16T03:28:04;663.50;;;610.83;;
53915;SDS011;39827;49.652;18.770;2023-05-16T03:30:34;672.08;;;618.85;;
53915;SDS011;39827;49.652;18.770;2023-05-16T03:32:59;663.75;;;610.80;;
53915;SDS011;39827;49.652;18.770;2023-05-16T03:35:25;687.63;;;633.33;;
53915;SDS011;39827;49.652;18.770;2023-05-16T03:37:51;741.97;;;682.42;;
53915;SDS011;39827;49.652;18.770;2023-05-16T03:40:16;712.03;;;655.83;;
53915;SDS011;39827;49.652;18.770;2023-05-16T03:42:42;685.03;;;630.55;;
53915;SDS011;39827;49.652;18.770;2023-05-16T03:45:07;657.42;;;605.45;;
53915;SDS011;39827;49.652;18.770;2023-05-16T03:47:33;644.22;;;591.28;;
53915;SDS011;39827;49.652;18.770;2023-05-16T03:49:59;599.33;;;549.35;;
53915;SDS011;39827;49.652;18.770;2023-05-16T03:52:24;526.63;;;481.52;;
53915;SDS011;39827;49.652;18.770;2023-05-16T03:54:50;697.90;;;641.30;;
53915;SDS011;39827;49.652;18.770;2023-05-16T03:57:15;693.72;;;639.45;;
53915;SDS011;39827;49.652;18.770;2023-05-16T03:59:41;683.13;;;629.75;;
53915;SDS011;39827;49.652;18.770;2023-05-16T04:02:06;672.03;;;619.80;;
53915;SDS011;39827;49.652;18.770;2023-05-16T04:04:32;588.38;;;540.45;;
53915;SDS011;39827;49.652;18.770;2023-05-16T04:06:57;487.27;;;445.75;;
53915;SDS011;39827;49.652;18.770;2023-05-16T04:09:23;541.58;;;494.92;;
53915;SDS011;39827;49.652;18.770;2023-05-16T04:11:48;709.75;;;652.53;;
53915;SDS011;39827;49.652;18.770;2023-05-16T04:14:14;707.55;;;651.53;;
53915;SDS011;39827;49.652;18.770;2023-05-16T04:16:40;704.47;;;649.38;;
53915;SDS011;39827;49.652;18.770;2023-05-16T04:19:05;681.83;;;628.50;;
53915;SDS011;39827;49.652;18.770;2023-05-16T04:21:31;664.58;;;614.08;;
53915;SDS011;39827;49.652;18.770;2023-05-16T04:23:56;686.47;;;633.65;;
53915;SDS011;39827;49.652;18.770;2023-05-16T04:26:22;773.03;;;714.50;;
53915;SDS011;39827;49.652;18.770;2023-05-16T04:28:48;721.20;;;666.67;;
53915;SDS011;39827;49.652;18.770;2023-05-16T04:31:14;678.35;;;627.50;;
53915;SDS011;39827;49.652;18.770;2023-05-16T04:33:40;682.20;;;629.97;;
53915;SDS011;39827;49.652;18.770;2023-05-16T04:36:06;668.90;;;618.45;;
53915;SDS011;39827;49.652;18.770;2023-05-16T04:38:32;759.63;;;703.38;;
53915;SDS011;39827;49.652;18.770;2023-05-16T04:40:57;788.67;;;729.10;;
53915;SDS011;39827;49.652;18.770;2023-05-16T04:43:23;769.03;;;711.17;;
53915;SDS011;39827;49.652;18.770;2023-05-16T04:45:48;751.75;;;695.13;;
53915;SDS011;39827;49.652;18.770;2023-05-16T04:48:14;706.50;;;653.92;;
53915;SDS011;39827;49.652;18.770;2023-05-16T04:50:40;706.92;;;653.85;;
53915;SDS011;39827;49.652;18.770;2023-05-16T04:53:06;659.25;;;609.30;;
53915;SDS011;39827;49.652;18.770;2023-05-16T04:55:31;726.00;;;671.38;;
53915;SDS011;39827;49.652;18.770;2023-05-16T04:57:57;734.05;;;678.60;;
53915;SDS011;39827;49.652;18.770;2023-05-16T05:00:22;687.58;;;635.22;;
53915;SDS011;39827;49.652;18.770;2023-05-16T05:02:48;687.00;;;634.92;;
53915;SDS011;39827;49.652;18.770;2023-05-16T05:05:13;547.17;;;504.27;;
53915;SDS011;39827;49.652;18.770;2023-05-16T05:07:39;408.38;;;377.23;;
53915;SDS011;39827;49.652;18.770;2023-05-16T05:10:05;376.73;;;348.30;;
53915;SDS011;39827;49.652;18.770;2023-05-16T05:12:31;536.20;;;494.13;;
53915;SDS011;39827;49.652;18.770;2023-05-16T05:14:57;364.35;;;337.33;;
53915;SDS011;39827;49.652;18.770;2023-05-16T05:17:22;338.25;;;314.05;;
53915;SDS011;39827;49.652;18.770;2023-05-16T05:19:48;485.95;;;450.10;;
53915;SDS011;39827;49.652;18.770;2023-05-16T05:22:13;503.35;;;466.15;;
53915;SDS011;39827;49.652;18.770;2023-05-16T05:24:39;628.92;;;584.35;;
53915;SDS011;39827;49.652;18.770;2023-05-16T05:27:04;603.55;;;560.28;;
53915;SDS011;39827;49.652;18.770;2023-05-16T05:29:30;514.35;;;475.92;;
53915;SDS011;39827;49.652;18.770;2023-05-16T05:31:55;471.88;;;437.02;;
53915;SDS011;39827;49.652;18.770;2023-05-16T05:34:21;494.65;;;457.00;;
53915;SDS011;39827;49.652;18.770;2023-05-16T05:36:46;618.65;;;574.13;;
53915;SDS011;39827;49.652;18.770;2023-05-16T05:39:12;630.20;;;584.92;;
53915;SDS011;39827;49.652;18.770;2023-05-16T05:41:37;662.28;;;614.63;;
53915;SDS011;39827;49.652;18.770;2023-05-16T05:44:03;690.13;;;640.03;;
53915;SDS011;39827;49.652;18.770;2023-05-16T05:46:29;595.30;;;551.38;;
53915;SDS011;39827;49.652;18.770;2023-05-16T05:48:55;623.97;;;578.22;;
53915;SDS011;39827;49.652;18.770;2023-05-16T05:51:21;603.95;;;559.42;;
53915;SDS011;39827;49.652;18.770;2023-05-16T05:53:46;654.00;;;606.15;;
53915;SDS011;39827;49.652;18.770;2023-05-16T05:56:11;709.58;;;657.55;;
53915;SDS011;39827;49.652;18.770;2023-05-16T05:58:37;767.67;;;709.75;;
53915;SDS011;39827;49.652;18.770;2023-05-16T06:01:03;746.45;;;690.90;;
53915;SDS011;39827;49.652;18.770;2023-05-16T06:03:28;781.85;;;720.80;;
53915;SDS011;39827;49.652;18.770;2023-05-16T06:05:54;759.95;;;702.58;;
53915;SDS011;39827;49.652;18.770;2023-05-16T06:08:19;788.90;;;727.72;;
53915;SDS011;39827;49.652;18.770;2023-05-16T06:10:46;859.83;;;790.83;;
53915;SDS011;39827;49.652;18.770;2023-05-16T06:13:11;892.65;;;820.42;;
53915;SDS011;39827;49.652;18.770;2023-05-16T06:15:37;903.53;;;829.83;;
53915;SDS011;39827;49.652;18.770;2023-05-16T06:18:02;894.90;;;822.95;;
53915;SDS011;39827;49.652;18.770;2023-05-16T06:20:28;927.38;;;851.42;;
53915;SDS011;39827;49.652;18.770;2023-05-16T06:22:53;945.75;;;866.65;;
53915;SDS011;39827;49.652;18.770;2023-05-16T06:25:18;944.95;;;866.08;;
53915;SDS011;39827;49.652;18.770;2023-05-16T06:27:44;927.60;;;851.80;;
53915;SDS011;39827;49.652;18.770;2023-05-16T06:30:09;932.85;;;856.50;;
53915;SDS011;39827;49.652;18.770;2023-05-16T06:32:35;937.35;;;858.70;;
53915;SDS011;39827;49.652;18.770;2023-05-16T06:35:01;928.00;;;849.47;;
53915;SDS011;39827;49.652;18.770;2023-05-16T06:37:26;957.55;;;875.17;;
53915;SDS011;39827;49.652;18.770;2023-05-16T06:39:52;950.28;;;868.50;;
53915;SDS011;39827;49.652;18.770;2023-05-16T06:42:17;956.65;;;874.88;;
53915;SDS011;39827;49.652;18.770;2023-05-16T06:44:44;960.92;;;879.00;;
53915;SDS011;39827;49.652;18.770;2023-05-16T06:47:10;949.92;;;870.08;;
53915;SDS011;39827;49.652;18.770;2023-05-16T06:49:36;890.28;;;820.95;;
53915;SDS011;39827;49.652;18.770;2023-05-16T06:52:01;900.75;;;830.45;;
53915;SDS011;39827;49.652;18.770;2023-05-16T06:54:27;894.08;;;825.53;;
53915;SDS011;39827;49.652;18.770;2023-05-16T06:56:52;895.92;;;827.85;;
53915;SDS011;39827;49.652;18.770;2023-05-16T06:59:18;863.75;;;800.60;;
53915;SDS011;39827;49.652;18.770;2023-05-16T07:01:43;844.72;;;783.05;;
53915;SDS011;39827;49.652;18.770;2023-05-16T07:04:08;733.60;;;682.17;;
53915;SDS011;39827;49.652;18.770;2023-05-16T07:06:34;696.53;;;648.38;;
53915;SDS011;39827;49.652;18.770;2023-05-16T07:08:59;423.58;;;394.42;;
53915;SDS011;39827;49.652;18.770;2023-05-16T07:11:26;412.85;;;384.88;;
53915;SDS011;39827;49.652;18.770;2023-05-16T07:13:53;473.92;;;440.80;;
53915;SDS011;39827;49.652;18.770;2023-05-16T07:16:19;542.90;;;504.45;;
53915;SDS011;39827;49.652;18.770;2023-05-16T07:18:44;472.60;;;439.70;;
53915;SDS011;39827;49.652;18.770;2023-05-16T07:21:10;784.70;;;729.55;;
53915;SDS011;39827;49.652;18.770;2023-05-16T07:23:35;822.35;;;764.20;;
53915;SDS011;39827;49.652;18.770;2023-05-16T07:26:00;432.15;;;402.20;;
53915;SDS011;39827;49.652;18.770;2023-05-16T07:28:26;403.17;;;375.70;;
53915;SDS011;39827;49.652;18.770;2023-05-16T07:30:52;349.90;;;327.15;;
53915;SDS011;39827;49.652;18.770;2023-05-16T07:33:18;352.00;;;329.05;;
53915;SDS011;39827;49.652;18.770;2023-05-16T07:35:44;389.20;;;363.27;;
53915;SDS011;39827;49.652;18.770;2023-05-16T07:38:09;408.23;;;381.02;;
53915;SDS011;39827;49.652;18.770;2023-05-16T07:40:35;421.40;;;393.10;;
53915;SDS011;39827;49.652;18.770;2023-05-16T07:43:01;482.67;;;448.88;;
53915;SDS011;39827;49.652;18.770;2023-05-16T07:45:26;443.27;;;412.70;;
53915;SDS011;39827;49.652;18.770;2023-05-16T07:47:52;419.33;;;390.70;;
53915;SDS011;39827;49.652;18.770;2023-05-16T07:50:17;428.50;;;399.02;;
53915;SDS011;39827;49.652;18.770;2023-05-16T07:52:43;358.48;;;334.20;;
53915;SDS011;39827;49.652;18.770;2023-05-16T07:55:08;396.33;;;369.48;;
53915;SDS011;39827;49.652;18.770;2023-05-16T07:57:34;408.65;;;381.33;;
53915;SDS011;39827;49.652;18.770;2023-05-16T08:00:00;374.80;;;350.13;;
53915;SDS011;39827;49.652;18.770;2023-05-16T08:02:25;346.60;;;323.33;;
53915;SDS011;39827;49.652;18.770;2023-05-16T08:04:54;353.52;;;329.85;;
53915;SDS011;39827;49.652;18.770;2023-05-16T08:07:21;359.17;;;335.73;;
53915;SDS011;39827;49.652;18.770;2023-05-16T08:09:46;554.53;;;516.72;;
53915;SDS011;39827;49.652;18.770;2023-05-16T08:12:12;438.42;;;409.52;;
53915;SDS011;39827;49.652;18.770;2023-05-16T08:14:37;558.88;;;520.72;;
53915;SDS011;39827;49.652;18.770;2023-05-16T08:17:03;538.47;;;502.15;;
53915;SDS011;39827;49.652;18.770;2023-05-16T08:19:28;555.80;;;518.08;;
53915;SDS011;39827;49.652;18.770;2023-05-16T08:21:54;523.20;;;488.27;;
53915;SDS011;39827;49.652;18.770;2023-05-16T08:24:20;490.00;;;457.73;;
53915;SDS011;39827;49.652;18.770;2023-05-16T08:26:45;484.55;;;452.55;;
53915;SDS011;39827;49.652;18.770;2023-05-16T08:29:10;513.72;;;479.45;;
53915;SDS011;39827;49.652;18.770;2023-05-16T08:31:36;567.83;;;528.92;;
53915;SDS011;39827;49.652;18.770;2023-05-16T08:34:01;562.60;;;524.47;;
53915;SDS011;39827;49.652;18.770;2023-05-16T08:36:30;569.53;;;530.60;;
53915;SDS011;39827;49.652;18.770;2023-05-16T08:38:55;489.58;;;457.30;;
53915;SDS011;39827;49.652;18.770;2023-05-16T08:41:21;566.33;;;527.35;;
53915;SDS011;39827;49.652;18.770;2023-05-16T08:43:46;548.83;;;512.65;;
53915;SDS011;39827;49.652;18.770;2023-05-16T08:46:12;615.08;;;572.22;;
53915;SDS011;39827;49.652;18.770;2023-05-16T08:48:37;582.58;;;543.13;;
53915;SDS011;39827;49.652;18.770;2023-05-16T08:51:07;565.95;;;526.92;;
53915;SDS011;39827;49.652;18.770;2023-05-16T08:53:39;618.05;;;575.22;;
53915;SDS011;39827;49.652;18.770;2023-05-16T08:56:09;622.13;;;579.00;;
53915;SDS011;39827;49.652;18.770;2023-05-16T08:58:36;559.85;;;522.22;;
53915;SDS011;39827;49.652;18.770;2023-05-16T09:01:03;566.63;;;529.63;;
53915;SDS011;39827;49.652;18.770;2023-05-16T09:03:33;565.53;;;527.97;;
53915;SDS011;39827;49.652;18.770;2023-05-16T09:06:00;627.38;;;584.47;;
53915;SDS011;39827;49.652;18.770;2023-05-16T09:08:26;632.05;;;589.70;;
53915;SDS011;39827;49.652;18.770;2023-05-16T09:10:52;592.83;;;553.22;;
53915;SDS011;39827;49.652;18.770;2023-05-16T09:13:17;595.70;;;556.70;;
53915;SDS011;39827;49.652;18.770;2023-05-16T09:15:43;615.97;;;574.58;;
53915;SDS011;39827;49.652;18.770;2023-05-16T09:18:11;580.40;;;540.53;;
53915;SDS011;39827;49.652;18.770;2023-05-16T09:20:42;524.33;;;489.02;;
53915;SDS011;39827;49.652;18.770;2023-05-16T09:23:10;589.75;;;550.20;;
53915;SDS011;39827;49.652;18.770;2023-05-16T09:25:36;618.70;;;576.92;;
53915;SDS011;39827;49.652;18.770;2023-05-16T09:28:04;585.13;;;545.45;;
53915;SDS011;39827;49.652;18.770;2023-05-16T09:30:30;579.13;;;541.65;;
53915;SDS011;39827;49.652;18.770;2023-05-16T09:32:57;579.03;;;540.85;;
53915;SDS011;39827;49.652;18.770;2023-05-16T09:35:23;585.10;;;547.25;;
53915;SDS011;39827;49.652;18.770;2023-05-16T09:37:49;610.53;;;570.42;;
53915;SDS011;39827;49.652;18.770;2023-05-16T09:40:19;599.75;;;560.50;;
53915;SDS011;39827;49.652;18.770;2023-05-16T09:42:46;581.08;;;542.72;;
53915;SDS011;39827;49.652;18.770;2023-05-16T09:45:12;607.47;;;567.35;;
53915;SDS011;39827;49.652;18.770;2023-05-16T09:47:38;534.08;;;499.10;;
53915;SDS011;39827;49.652;18.770;2023-05-16T09:50:13;593.08;;;552.70;;
53915;SDS011;39827;49.652;18.770;2023-05-16T09:52:40;607.58;;;568.22;;
53915;SDS011;39827;49.652;18.770;2023-05-16T09:55:06;610.15;;;570.10;;
53915;SDS011;39827;49.652;18.770;2023-05-16T09:57:35;585.22;;;547.55;;
53915;SDS011;39827;49.652;18.770;2023-05-16T10:00:01;593.40;;;554.42;;
53915;SDS011;39827;49.652;18.770;2023-05-16T10:02:32;596.10;;;556.60;;
53915;SDS011;39827;49.652;18.770;2023-05-16T10:04:59;588.80;;;550.03;;
53915;SDS011;39827;49.652;18.770;2023-05-16T10:07:24;594.10;;;553.17;;
53915;SDS011;39827;49.652;18.770;2023-05-16T10:09:50;592.60;;;551.80;;
53915;SDS011;39827;49.652;18.770;2023-05-16T10:12:17;608.08;;;567.70;;
53915;SDS011;39827;49.652;18.770;2023-05-16T10:14:44;596.53;;;557.00;;
53915;SDS011;39827;49.652;18.770;2023-05-16T10:17:11;532.00;;;497.48;;
53915;SDS011;39827;49.652;18.770;2023-05-16T10:19:39;529.10;;;495.05;;
53915;SDS011;39827;49.652;18.770;2023-05-16T10:22:06;548.95;;;513.03;;
53915;SDS011;39827;49.652;18.770;2023-05-16T10:27:14;554.22;;;518.05;;
53915;SDS011;39827;49.652;18.770;2023-05-16T10:29:40;598.92;;;558.35;;
53915;SDS011;39827;49.652;18.770;2023-05-16T10:32:06;600.53;;;560.42;;
53915;SDS011;39827;49.652;18.770;2023-05-16T10:34:32;589.08;;;549.28;;
53915;SDS011;39827;49.652;18.770;2023-05-16T10:36:58;603.17;;;562.53;;
53915;SDS011;39827;49.652;18.770;2023-05-16T10:39:24;580.42;;;541.30;;
53915;SDS011;39827;49.652;18.770;2023-05-16T10:41:51;574.28;;;535.75;;
53915;SDS011;39827;49.652;18.770;2023-05-16T10:44:17;560.67;;;523.72;;
53915;SDS011;39827;49.652;18.770;2023-05-16T10:46:42;566.58;;;529.10;;
53915;SDS011;39827;49.652;18.770;2023-05-16T10:49:21;519.30;;;484.60;;
53915;SDS011;39827;49.652;18.770;2023-05-16T10:54:35;614.72;;;572.22;;
53915;SDS011;39827;49.652;18.770;2023-05-16T10:57:04;567.28;;;527.67;;
53915;SDS011;39827;49.652;18.770;2023-05-16T10:59:39;585.15;;;544.50;;
53915;SDS011;39827;49.652;18.770;2023-05-16T11:04:47;584.95;;;543.20;;
53915;SDS011;39827;49.652;18.770;2023-05-16T11:07:15;637.17;;;591.42;;
53915;SDS011;39827;49.652;18.770;2023-05-16T11:09:42;591.25;;;548.45;;
53915;SDS011;39827;49.652;18.770;2023-05-16T11:12:09;684.22;;;635.75;;
53915;SDS011;39827;49.652;18.770;2023-05-16T11:14:36;646.95;;;600.55;;
53915;SDS011;39827;49.652;18.770;2023-05-16T11:17:15;654.08;;;607.22;;
53915;SDS011;39827;49.652;18.770;2023-05-16T11:25:03;677.45;;;628.65;;
53915;SDS011;39827;49.652;18.770;2023-05-16T11:32:31;739.90;;;686.50;;
53915;SDS011;39827;49.652;18.770;2023-05-16T11:34:59;990.35;;;910.83;;
53915;SDS011;39827;49.652;18.770;2023-05-16T11:37:24;957.70;;;883.08;;
53915;SDS011;39827;49.652;18.770;2023-05-16T11:39:50;1002.72;;;921.08;;
53915;SDS011;39827;49.652;18.770;2023-05-16T11:42:15;1001.25;;;921.47;;
53915;SDS011;39827;49.652;18.770;2023-05-16T11:44:42;1020.20;;;936.17;;
53915;SDS011;39827;49.652;18.770;2023-05-16T11:47:08;997.92;;;915.05;;
53915;SDS011;39827;49.652;18.770;2023-05-16T11:49:33;1009.50;;;925.85;;
53915;SDS011;39827;49.652;18.770;2023-05-16T11:51:59;1008.88;;;925.58;;
53915;SDS011;39827;49.652;18.770;2023-05-16T11:54:25;1004.03;;;919.72;;
53915;SDS011;39827;49.652;18.770;2023-05-16T11:56:51;1006.33;;;921.22;;
53915;SDS011;39827;49.652;18.770;2023-05-16T11:59:17;1011.67;;;926.92;;
53915;SDS011;39827;49.652;18.770;2023-05-16T12:01:42;1008.80;;;924.33;;
53915;SDS011;39827;49.652;18.770;2023-05-16T12:04:11;961.83;;;880.47;;
53915;SDS011;39827;49.652;18.770;2023-05-16T12:06:38;959.80;;;879.10;;
53915;SDS011;39827;49.652;18.770;2023-05-16T12:09:04;987.35;;;904.92;;
53915;SDS011;39827;49.652;18.770;2023-05-16T12:11:38;990.67;;;908.42;;
53915;SDS011;39827;49.652;18.770;2023-05-16T12:14:08;934.08;;;859.53;;
53915;SDS011;39827;49.652;18.770;2023-05-16T12:16:36;960.40;;;882.58;;
53915;SDS011;39827;49.652;18.770;2023-05-16T12:19:03;948.70;;;871.15;;
53915;SDS011;39827;49.652;18.770;2023-05-16T12:21:30;971.00;;;891.85;;
53915;SDS011;39827;49.652;18.770;2023-05-16T12:23:56;763.85;;;705.17;;
53915;SDS011;39827;49.652;18.770;2023-05-16T12:26:26;834.97;;;770.08;;
53915;SDS011;39827;49.652;18.770;2023-05-16T12:29:03;850.47;;;783.38;;
53915;SDS011;39827;49.652;18.770;2023-05-16T12:31:30;924.80;;;849.00;;
53915;SDS011;39827;49.652;18.770;2023-05-16T12:33:59;913.83;;;841.10;;
53915;SDS011;39827;49.652;18.770;2023-05-16T12:36:25;756.90;;;698.45;;
53915;SDS011;39827;49.652;18.770;2023-05-16T12:38:51;904.85;;;833.25;;
53915;SDS011;39827;49.652;18.770;2023-05-16T12:41:21;837.55;;;771.95;;
53915;SDS011;39827;49.652;18.770;2023-05-16T12:43:47;922.33;;;848.80;;
53915;SDS011;39827;49.652;18.770;2023-05-16T12:46:13;1003.70;;;922.05;;
53915;SDS011;39827;49.652;18.770;2023-05-16T12:48:39;964.83;;;886.60;;
53915;SDS011;39827;49.652;18.770;2023-05-16T12:51:13;863.63;;;796.47;;
53915;SDS011;39827;49.652;18.770;2023-05-16T12:53:45;941.53;;;868.45;;
53915;SDS011;39827;49.652;18.770;2023-05-16T12:56:12;930.05;;;858.55;;
53915;SDS011;39827;49.652;18.770;2023-05-16T12:58:39;982.30;;;905.00;;
53915;SDS011;39827;49.652;18.770;2023-05-16T13:01:08;984.28;;;904.78;;
53915;SDS011;39827;49.652;18.770;2023-05-16T13:03:33;976.03;;;898.22;;
53915;SDS011;39827;49.652;18.770;2023-05-16T13:06:00;979.25;;;898.95;;
53915;SDS011;39827;49.652;18.770;2023-05-16T13:08:27;1004.70;;;921.03;;
53915;SDS011;39827;49.652;18.770;2023-05-16T13:10:53;965.13;;;886.70;;
53915;SDS011;39827;49.652;18.770;2023-05-16T13:13:19;947.45;;;871.17;;
53915;SDS011;39827;49.652;18.770;2023-05-16T13:15:44;931.00;;;854.08;;
53915;SDS011;39827;49.652;18.770;2023-05-16T13:18:10;961.10;;;880.78;;
53915;SDS011;39827;49.652;18.770;2023-05-16T13:20:35;775.03;;;715.33;;
53915;SDS011;39827;49.652;18.770;2023-05-16T13:23:01;907.90;;;833.85;;
53915;SDS011;39827;49.652;18.770;2023-05-16T13:25:26;877.90;;;808.55;;
53915;SDS011;39827;49.652;18.770;2023-05-16T13:27:51;803.60;;;741.65;;
53915;SDS011;39827;49.652;18.770;2023-05-16T13:30:17;888.72;;;816.92;;
53915;SDS011;39827;49.652;18.770;2023-05-16T13:32:42;703.03;;;648.95;;
53915;SDS011;39827;49.652;18.770;2023-05-16T13:35:08;649.40;;;598.97;;
53915;SDS011;39827;49.652;18.770;2023-05-16T13:37:34;812.50;;;749.42;;
53915;SDS011;39827;49.652;18.770;2023-05-16T13:40:01;816.97;;;753.22;;
53915;SDS011;39827;49.652;18.770;2023-05-16T13:42:28;648.15;;;597.85;;
53915;SDS011;39827;49.652;18.770;2023-05-16T13:44:53;629.42;;;580.17;;
53915;SDS011;39827;49.652;18.770;2023-05-16T13:47:19;594.95;;;548.40;;
53915;SDS011;39827;49.652;18.770;2023-05-16T13:49:44;576.05;;;530.53;;
53915;SDS011;39827;49.652;18.770;2023-05-16T13:52:11;569.13;;;524.72;;
53915;SDS011;39827;49.652;18.770;2023-05-16T13:54:37;638.00;;;590.38;;
53915;SDS011;39827;49.652;18.770;2023-05-16T13:57:04;667.75;;;618.60;;
53915;SDS011;39827;49.652;18.770;2023-05-16T13:59:29;731.58;;;676.88;;
53915;SDS011;39827;49.652;18.770;2023-05-16T14:01:55;716.92;;;664.38;;
53915;SDS011;39827;49.652;18.770;2023-05-16T14:04:20;712.88;;;659.15;;
53915;SDS011;39827;49.652;18.770;2023-05-16T14:06:46;559.25;;;517.58;;
53915;SDS011;39827;49.652;18.770;2023-05-16T14:09:11;670.53;;;619.05;;